Time;durP1;ratioP1;P1;durP2;ratioP2;P2;SDS_P1;SDS_P2;PMS_P1;PMS_P2;Temp;Humidity;BMP_temperature;BMP_pressure;BME280_temperature;BME280_humidity;BME280_pressure;Samples;Min_cycle;Max_cycle;Signal;HPM_P1;HPM_P2
2023/03/04 00:00:19;;;;;;;23.93;19.50;;;;;;;0.09;100.00;101004.94;5041539;28;20557;-75
2023/03/04 00:02:45;;;;;;;27.13;19.80;;;;;;;0.11;100.00;101011.84;5045307;28;20191;-74
2023/03/04 00:05:10;;;;;;;26.67;21.17;;;;;;;0.14;100.00;101006.03;5046550;28;20258;-74
2023/03/04 00:07:35;;;;;;;27.17;20.80;;;;;;;0.17;100.00;101012.91;5044941;28;20226;-74
2023/03/04 00:10:01;;;;;;;26.17;20.07;;;;;;;0.18;100.00;101007.91;5047979;28;20181;-74
2023/03/04 00:12:26;;;;;;;27.80;21.50;;;;;;;0.23;100.00;101011.50;5047991;28;20203;-74
2023/03/04 00:14:51;;;;;;;26.10;20.50;;;;;;;0.25;100.00;101016.69;5048264;28;20189;-74
2023/03/04 00:17:17;;;;;;;27.00;21.57;;;;;;;0.23;100.00;101011.50;5048176;28;20186;-73
2023/03/04 00:19:42;;;;;;;25.97;20.53;;;;;;;0.24;100.00;101017.50;5054784;28;20268;-73
2023/03/04 00:22:07;;;;;;;27.33;21.80;;;;;;;0.26;100.00;101028.63;5041721;28;20192;-73
2023/03/04 00:24:33;;;;;;;29.87;22.30;;;;;;;0.27;100.00;101017.63;5043894;28;20186;-73
2023/03/04 00:26:59;;;;;;;28.43;22.20;;;;;;;0.35;100.00;101013.75;5047091;28;20195;-72
2023/03/04 00:29:25;;;;;;;32.20;24.03;;;;;;;0.41;100.00;101013.13;5043349;28;20220;-74
2023/03/04 00:31:51;;;;;;;29.40;23.17;;;;;;;0.33;100.00;101017.88;5039249;28;20210;-73
2023/03/04 00:34:16;;;;;;;28.53;21.70;;;;;;;0.29;100.00;101019.44;5043217;28;20290;-74
2023/03/04 00:36:43;;;;;;;27.50;21.63;;;;;;;0.25;100.00;101016.69;5048439;28;20222;-74
2023/03/04 00:39:09;;;;;;;27.30;20.43;;;;;;;0.22;100.00;101007.25;5043770;28;20212;-74
2023/03/04 00:41:35;;;;;;;28.03;21.63;;;;;;;0.21;100.00;101014.81;5046979;28;20188;-73
2023/03/04 00:44:00;;;;;;;27.37;21.30;;;;;;;0.14;100.00;101013.66;5043001;28;20178;-74
2023/03/04 00:46:25;;;;;;;26.37;20.07;;;;;;;0.13;100.00;101020.44;5041267;28;20646;-73
2023/03/04 00:48:50;;;;;;;26.23;20.17;;;;;;;0.08;100.00;101021.88;5041092;28;20207;-74
2023/03/04 00:51:16;;;;;;;28.43;20.87;;;;;;;0.07;100.00;101027.78;5041266;28;20525;-74
2023/03/04 00:53:41;;;;;;;26.33;20.77;;;;;;;0.04;100.00;101017.44;5044291;28;21089;-74
2023/03/04 00:56:06;;;;;;;29.17;21.30;;;;;;;-0.01;100.00;101022.34;5045097;28;20208;-74
2023/03/04 00:58:32;;;;;;;26.93;21.80;;;;;;;-0.02;100.00;101015.50;5045966;28;20728;-74
2023/03/04 01:00:57;;;;;;;27.90;21.07;;;;;;;-0.03;100.00;101023.94;5041213;28;20193;-75
2023/03/04 01:03:23;;;;;;;23.20;19.50;;;;;;;-0.06;100.00;101023.78;5045353;28;20611;-75
2023/03/04 01:05:48;;;;;;;26.80;20.30;;;;;;;-0.08;100.00;101022.88;5042220;28;20190;-75
2023/03/04 01:08:14;;;;;;;31.13;23.40;;;;;;;0.05;100.00;101015.78;5038304;28;20215;-74
2023/03/04 01:10:39;;;;;;;32.13;23.87;;;;;;;0.11;100.00;101018.59;5040241;28;20288;-75
2023/03/04 01:13:05;;;;;;;32.63;22.90;;;;;;;0.06;100.00;101023.50;5049633;28;20199;-74
2023/03/04 01:15:30;;;;;;;27.80;20.93;;;;;;;0.01;100.00;101022.41;5039752;28;20225;-74
2023/03/04 01:17:55;;;;;;;26.60;21.43;;;;;;;-0.01;100.00;101029.97;5044559;28;20242;-75
2023/03/04 01:20:21;;;;;;;26.90;21.03;;;;;;;-0.05;100.00;101027.22;5043188;28;20266;-74
2023/03/04 01:22:46;;;;;;;24.57;20.20;;;;;;;-0.07;100.00;101026.28;5045628;28;20185;-74
2023/03/04 01:25:11;;;;;;;29.57;22.53;;;;;;;-0.09;100.00;101025.31;5043991;28;20184;-74
2023/03/04 01:27:37;;;;;;;29.33;22.77;;;;;;;-0.09;100.00;101023.66;5043588;28;20577;-73
2023/03/04 01:30:03;;;;;;;29.77;21.07;;;;;;;-0.13;100.00;101011.59;5043555;28;20280;-73
2023/03/04 01:32:29;;;;;;;30.83;23.53;;;;;;;-0.09;100.00;101015.16;5043831;28;20183;-74
2023/03/04 01:34:54;;;;;;;35.63;24.57;;;;;;;-0.10;100.00;101019.38;5037497;28;20199;-74
2023/03/04 01:37:19;;;;;;;31.43;23.57;;;;;;;-0.10;100.00;101018.50;5044352;28;20286;-73
2023/03/04 01:39:44;;;;;;;31.93;23.80;;;;;;;-0.13;100.00;101014.16;5048476;28;20278;-74
2023/03/04 01:42:17;;;;;;;30.97;24.30;;;;;;;-0.13;100.00;101009.06;5049359;28;20190;-74
2023/03/04 01:44:43;;;;;;;35.57;25.33;;;;;;;-0.19;100.00;101003.66;5042098;28;20216;-74
2023/03/04 01:47:09;;;;;;;35.43;25.83;;;;;;;-0.21;100.00;101012.91;5046176;28;20192;-74
2023/03/04 01:49:35;;;;;;;38.90;27.67;;;;;;;-0.26;100.00;101010.16;5041013;28;20666;-74
2023/03/04 01:52:00;;;;;;;38.33;29.00;;;;;;;-0.27;100.00;101012.63;5042756;28;20197;-74
2023/03/04 01:54:25;;;;;;;40.73;28.53;;;;;;;-0.28;100.00;101000.72;5044532;28;20237;-74
2023/03/04 01:56:51;;;;;;;43.27;30.10;;;;;;;-0.30;100.00;101005.72;5042943;28;20650;-74
2023/03/04 01:59:22;;;;;;;42.73;29.43;;;;;;;-0.37;100.00;101003.69;5044692;28;20199;-74
2023/03/04 02:01:57;;;;;;;46.93;32.57;;;;;;;-0.37;100.00;101002.00;5042893;28;20216;-74
2023/03/04 02:04:31;;;;;;;43.90;30.87;;;;;;;-0.41;100.00;100997.59;5042010;28;20272;-74
2023/03/04 02:06:58;;;;;;;45.20;30.43;;;;;;;-0.43;100.00;101011.03;5047986;28;20199;-74
2023/03/04 02:09:23;;;;;;;44.67;31.20;;;;;;;-0.47;100.00;101000.72;5051714;28;20217;-74
2023/03/04 02:11:50;;;;;;;45.57;32.57;;;;;;;-0.45;100.00;100995.69;5053918;28;20187;-74
2023/03/04 02:14:16;;;;;;;48.37;32.73;;;;;;;-0.47;100.00;100992.22;5046510;28;20188;-74
2023/03/04 02:16:42;;;;;;;48.70;33.90;;;;;;;-0.49;100.00;100988.72;5059708;28;21110;-74
2023/03/04 02:19:35;;;;;;;57.73;36.13;;;;;;;-0.43;100.00;100999.19;5045490;28;20217;-75
2023/03/04 02:22:00;;;;;;;50.63;33.73;;;;;;;-0.50;100.00;100992.06;5027671;28;20198;-74
2023/03/04 02:24:34;;;;;;;53.37;35.87;;;;;;;-0.52;100.00;101003.81;5049889;28;20295;-74
2023/03/04 02:27:00;;;;;;;56.73;37.53;;;;;;;-0.53;100.00;100997.03;5047700;28;20191;-74
2023/03/04 02:29:27;;;;;;;52.63;35.07;;;;;;;-0.56;100.00;100996.88;5046503;28;20577;-75
2023/03/04 02:31:53;;;;;;;55.93;36.23;;;;;;;-0.60;100.00;100994.97;5045353;28;20196;-74
2023/03/04 02:34:22;;;;;;;56.13;35.73;;;;;;;-0.63;100.00;100995.72;5046559;28;20198;-73
2023/03/04 02:36:49;;;;;;;55.40;36.87;;;;;;;-0.67;100.00;100997.22;5043274;28;20880;-73
2023/03/04 02:39:24;;;;;;;59.40;38.10;;;;;;;-0.69;100.00;100996.28;5045276;28;20200;-74
2023/03/04 02:41:51;;;;;;;57.20;36.53;;;;;;;-0.69;100.00;100996.28;5059863;28;20192;-74
2023/03/04 02:44:18;;;;;;;58.50;37.83;;;;;;;-0.72;100.00;101001.22;5046002;28;20776;-74
2023/03/04 02:46:45;;;;;;;56.57;37.07;;;;;;;-0.72;100.00;100996.13;5047151;28;20195;-73
2023/03/04 02:49:10;;;;;;;57.23;36.50;;;;;;;-0.76;100.00;100999.31;5045215;28;20205;-74
2023/03/04 02:51:36;;;;;;;55.33;35.43;;;;;;;-0.80;100.00;100993.22;5044568;28;20200;-74
2023/03/04 02:54:01;;;;;;;62.20;38.37;;;;;;;-0.77;100.00;100997.56;5045404;28;20185;-74
2023/03/04 02:56:27;;;;;;;58.10;36.47;;;;;;;-0.79;100.00;100994.97;5047164;28;20227;-74
2023/03/04 02:58:52;;;;;;;54.57;35.03;;;;;;;-0.84;100.00;100990.47;5043852;28;20220;-73
2023/03/04 03:01:17;;;;;;;58.37;35.67;;;;;;;-0.86;100.00;100994.59;5054959;28;20243;-74
2023/03/04 03:03:43;;;;;;;54.07;34.40;;;;;;;-0.87;100.00;100996.25;5045034;28;20545;-73
2023/03/04 03:06:08;;;;;;;52.37;34.20;;;;;;;-0.91;100.00;100979.13;5043057;28;20264;-74
2023/03/04 03:08:33;;;;;;;51.23;33.20;;;;;;;-0.95;100.00;100992.47;5040469;28;20212;-74
2023/03/04 03:10:59;;;;;;;49.50;32.23;;;;;;;-0.99;100.00;100983.84;5043171;28;20223;-73
2023/03/04 03:13:24;;;;;;;49.80;33.53;;;;;;;-0.99;100.00;100988.91;5042478;28;20210;-74
2023/03/04 03:15:49;;;;;;;50.97;32.47;;;;;;;-1.03;100.00;100984.47;5043459;28;20191;-73
2023/03/04 03:18:15;;;;;;;49.77;33.37;;;;;;;-1.04;100.00;100986.91;5044634;28;20301;-75
2023/03/04 03:20:40;;;;;;;52.03;33.67;;;;;;;-1.05;100.00;100980.09;5037814;28;20710;-74
2023/03/04 03:23:06;;;;;;;54.37;34.87;;;;;;;-1.11;100.00;100975.56;5044729;28;20185;-73
2023/03/04 03:25:31;;;;;;;58.07;36.43;;;;;;;-1.11;100.00;100983.19;5044868;28;20247;-74
2023/03/04 03:27:56;;;;;;;54.17;34.53;;;;;;;-1.11;100.00;100978.13;5042269;28;20218;-74
2023/03/04 03:30:22;;;;;;;56.40;36.10;;;;;;;-1.14;100.00;100989.00;5041121;28;20982;-74
2023/03/04 03:32:47;;;;;;;58.43;35.80;;;;;;;-1.17;100.00;100977.84;5043258;28;20743;-74
2023/03/04 03:35:13;;;;;;;63.57;37.97;;;;;;;-1.15;100.00;100979.66;5046167;28;20419;-74
2023/03/04 03:37:38;;;;;;;57.37;36.97;;;;;;;-1.16;100.00;100979.56;5060979;28;20751;-74
2023/03/04 03:40:04;;;;;;;56.97;34.67;;;;;;;-1.20;100.00;100986.16;5045158;28;20274;-74
2023/03/04 03:42:29;;;;;;;56.90;36.27;;;;;;;-1.21;100.00;100978.47;5044053;28;20191;-74
2023/03/04 03:44:55;;;;;;;55.07;34.80;;;;;;;-1.23;100.00;100976.72;5044508;28;20267;-73
2023/03/04 03:47:20;;;;;;;55.87;34.33;;;;;;;-1.24;100.00;100979.19;5043705;28;20246;-74
2023/03/04 03:49:46;;;;;;;56.70;35.57;;;;;;;-1.26;100.00;100981.63;5041234;28;20688;-73
2023/03/04 03:52:11;;;;;;;56.40;35.27;;;;;;;-1.25;100.00;100972.38;5044606;28;20186;-74
2023/03/04 03:54:37;;;;;;;55.40;34.90;;;;;;;-1.20;100.00;100968.38;5043525;28;20189;-74
2023/03/04 03:57:02;;;;;;;55.60;35.17;;;;;;;-1.22;100.00;100970.00;5010558;28;1052267;-75
2023/03/04 03:59:27;;;;;;;59.43;35.10;;;;;;;-1.28;100.00;100975.59;5049035;28;20200;-74
2023/03/04 04:01:53;;;;;;;57.70;34.17;;;;;;;-1.32;100.00;100978.81;5044186;28;20279;-74
2023/03/04 04:04:18;;;;;;;53.33;33.97;;;;;;;-1.35;100.00;100980.31;5045159;28;20637;-74
2023/03/04 04:06:43;;;;;;;53.43;33.07;;;;;;;-1.41;100.00;100969.06;5046466;28;20202;-75
2023/03/04 04:09:09;;;;;;;57.43;34.97;;;;;;;-1.44;100.00;100973.97;5046522;28;20208;-74
2023/03/04 04:11:34;;;;;;;56.77;34.33;;;;;;;-1.43;100.00;100979.91;5039961;28;20204;-74
2023/03/04 04:13:59;;;;;;;55.00;34.37;;;;;;;-1.47;100.00;100983.97;5037911;28;20187;-74
2023/03/04 04:16:25;;;;;;;55.30;33.23;;;;;;;-1.49;100.00;100979.63;5044610;28;20273;-74
2023/03/04 04:18:50;;;;;;;56.00;34.37;;;;;;;-1.50;100.00;100976.19;5051981;28;20255;-74
2023/03/04 04:21:15;;;;;;;52.37;33.60;;;;;;;-1.52;100.00;100979.44;5048324;28;20180;-74
2023/03/04 04:23:41;;;;;;;53.27;33.17;;;;;;;-1.54;100.00;100979.38;5044290;28;20203;-74
2023/03/04 04:26:06;;;;;;;48.40;32.37;;;;;;;-1.55;100.00;100986.09;5060478;28;20270;-74
2023/03/04 04:28:32;;;;;;;50.40;32.07;;;;;;;-1.57;100.00;100975.00;5042619;28;20233;-73
2023/03/04 04:30:57;;;;;;;52.17;32.90;;;;;;;-1.59;100.00;100984.19;5045236;28;20274;-74
2023/03/04 04:33:22;;;;;;;56.53;34.03;;;;;;;-1.55;100.00;100992.88;5046066;28;20204;-74
2023/03/04 04:35:48;;;;;;;53.43;33.60;;;;;;;-1.49;100.00;100995.69;5046940;28;20190;-74
2023/03/04 04:38:13;;;;;;;53.63;34.80;;;;;;;-1.51;100.00;100992.22;5046652;28;20219;-73
2023/03/04 04:40:39;;;;;;;51.47;33.57;;;;;;;-1.51;100.00;100992.22;5043727;28;20717;-74
2023/03/04 04:43:04;;;;;;;55.30;33.33;;;;;;;-1.56;100.00;100986.91;5045387;28;20200;-73
2023/03/04 04:45:29;;;;;;;51.93;33.27;;;;;;;-1.59;100.00;100989.28;5045717;28;20199;-74
2023/03/04 04:47:56;;;;;;;53.20;33.17;;;;;;;-1.60;100.00;100991.75;5043215;28;20220;-74
2023/03/04 04:50:22;;;;;;;58.73;34.23;;;;;;;-1.63;100.00;100989.94;5042593;28;20195;-74
2023/03/04 04:52:47;;;;;;;57.03;33.57;;;;;;;-1.65;100.00;100993.16;5042166;28;20187;-73
2023/03/04 04:55:13;;;;;;;58.23;34.33;;;;;;;-1.67;100.00;100994.78;5047926;28;20172;-74
2023/03/04 04:57:38;;;;;;;51.53;32.33;;;;;;;-1.72;100.00;100992.88;5043889;28;20227;-74
2023/03/04 05:00:05;;;;;;;51.17;33.27;;;;;;;-1.77;100.00;100988.34;5042910;28;20188;-74
2023/03/04 05:02:35;;;;;;;52.57;32.77;;;;;;;-1.78;100.00;100992.53;5039926;28;20191;-74
2023/03/04 05:05:00;;;;;;;56.87;34.80;;;;;;;-1.79;100.00;100987.38;5041559;28;20192;-74
2023/03/04 05:07:26;;;;;;;59.23;34.50;;;;;;;-1.78;100.00;100989.13;5039061;28;20184;-73
2023/03/04 05:09:51;;;;;;;64.60;37.03;;;;;;;-1.79;100.00;100984.84;5045351;28;20538;-74
2023/03/04 05:12:16;;;;;;;56.70;34.13;;;;;;;-1.82;100.00;100982.13;5040562;28;20189;-74
2023/03/04 05:14:42;;;;;;;56.57;34.90;;;;;;;-1.84;100.00;100984.63;5043842;28;20189;-74
2023/03/04 05:17:07;;;;;;;56.10;33.80;;;;;;;-1.90;100.00;100990.25;5042911;28;20188;-74
2023/03/04 05:19:32;;;;;;;59.00;33.67;;;;;;;-1.90;100.00;100981.75;5059182;28;20678;-74
2023/03/04 05:21:58;;;;;;;48.23;29.90;;;;;;;-1.93;100.00;100990.06;5040708;28;20215;-74
2023/03/04 05:24:23;;;;;;;55.13;33.23;;;;;;;-1.95;100.00;100983.16;5041793;28;20183;-74
2023/03/04 05:26:48;;;;;;;53.07;31.20;;;;;;;-1.97;100.00;100988.16;5043207;28;20434;-74
2023/03/04 05:29:13;;;;;;;56.23;33.07;;;;;;;-2.00;100.00;100996.47;5042906;28;20207;-74
2023/03/04 05:31:39;;;;;;;58.90;34.10;;;;;;;-2.01;100.00;100997.28;5040421;28;20181;-74
2023/03/04 05:34:04;;;;;;;63.40;36.33;;;;;;;-1.91;100.00;100995.22;5040259;28;20224;-73
2023/03/04 05:36:29;;;;;;;63.03;36.03;;;;;;;-1.93;100.00;100991.72;5041987;28;20179;-74
2023/03/04 05:38:55;;;;;;;62.37;36.07;;;;;;;-1.90;100.00;100995.31;5042125;28;20210;-74
2023/03/04 05:41:21;;;;;;;61.80;37.33;;;;;;;-1.92;100.00;100994.34;5058126;28;20277;-74
2023/03/04 05:43:48;;;;;;;62.87;36.13;;;;;;;-1.95;100.00;100993.28;5049910;28;20226;-74
2023/03/04 05:46:15;;;;;;;58.77;35.40;;;;;;;-1.96;100.00;100997.50;5039882;28;20798;-75
2023/03/04 05:48:41;;;;;;;61.73;36.60;;;;;;;-1.95;100.00;101003.44;5056213;28;20221;-76
2023/03/04 05:51:06;;;;;;;60.43;36.20;;;;;;;-1.97;100.00;101012.66;5046151;28;20823;-75
2023/03/04 05:53:31;;;;;;;58.27;35.33;;;;;;;-1.97;100.00;101010.97;5043341;28;20195;-76
2023/03/04 05:55:58;;;;;;;61.70;36.60;;;;;;;-1.98;100.00;101016.84;5044073;28;21076;-75
2023/03/04 05:58:24;;;;;;;64.00;36.30;;;;;;;-1.99;100.00;101015.09;5040204;28;20209;-75
2023/03/04 06:00:49;;;;;;;66.10;36.67;;;;;;;-2.01;100.00;101016.69;5041467;28;20189;-75
2023/03/04 06:03:19;;;;;;;62.47;34.77;;;;;;;-2.02;100.00;101022.53;5044348;28;20715;-76
2023/03/04 06:05:44;;;;;;;60.23;36.07;;;;;;;-2.04;100.00;101024.16;5039811;28;20274;-76
2023/03/04 06:08:11;;;;;;;59.93;35.47;;;;;;;-2.07;100.00;101024.84;5042279;28;20634;-75
2023/03/04 06:10:38;;;;;;;63.83;34.07;;;;;;;-2.10;100.00;101026.34;5043766;28;20306;-76
2023/03/04 06:13:04;;;;;;;63.37;34.83;;;;;;;-2.07;100.00;101032.44;5041047;28;20192;-76
2023/03/04 06:15:29;;;;;;;58.63;35.00;;;;;;;-2.08;100.00;101033.22;5040230;28;20185;-76
2023/03/04 06:17:55;;;;;;;60.07;35.93;;;;;;;-2.07;100.00;101039.19;5043330;28;20215;-76
2023/03/04 06:20:20;;;;;;;61.73;34.63;;;;;;;-2.05;100.00;101038.47;5037709;28;20197;-75
2023/03/04 06:22:45;;;;;;;58.47;35.27;;;;;;;-2.02;100.00;101033.56;5040081;28;20254;-76
2023/03/04 06:25:11;;;;;;;54.73;32.67;;;;;;;-1.97;100.00;101035.50;5036597;28;20223;-75
2023/03/04 06:27:36;;;;;;;58.70;34.30;;;;;;;-1.93;100.00;101038.28;5042239;28;20211;-75
2023/03/04 06:30:02;;;;;;;57.33;33.30;;;;;;;-1.87;100.00;101037.72;5040805;28;20313;-75
2023/03/04 06:32:28;;;;;;;61.73;34.83;;;;;;;-1.80;100.00;101041.47;5040297;28;20667;-75
2023/03/04 06:34:53;;;;;;;54.50;35.00;;;;;;;-1.71;100.00;101040.28;5041105;28;20188;-78
2023/03/04 06:37:18;;;;;;;59.73;34.37;;;;;;;-1.61;100.00;101039.13;5037401;28;20295;-74
2023/03/04 06:39:44;;;;;;;54.47;32.83;;;;;;;-1.50;100.00;101043.88;5038231;28;20214;-76
2023/03/04 06:42:10;;;;;;;56.13;34.57;;;;;;;-1.40;100.00;101043.56;5041145;28;20189;-74
2023/03/04 06:44:36;;;;;;;49.27;31.10;;;;;;;-1.30;100.00;101040.72;5031188;28;20213;-73
2023/03/04 06:47:01;;;;;;;49.07;31.87;;;;;;;-1.16;100.00;101038.00;5037610;28;20624;-73
2023/03/04 06:49:26;;;;;;;51.97;31.30;;;;;;;-1.08;100.00;101042.69;5043627;28;20232;-73
2023/03/04 06:51:51;;;;;;;50.83;31.03;;;;;;;-1.01;100.00;101037.88;5032615;28;20579;-74
2023/03/04 06:54:17;;;;;;;54.27;33.93;;;;;;;-0.92;100.00;101040.91;5045472;28;20833;-73
2023/03/04 06:56:42;;;;;;;50.00;31.43;;;;;;;-0.84;100.00;101041.28;5040881;28;20192;-74
2023/03/04 06:59:08;;;;;;;50.67;32.53;;;;;;;-0.77;100.00;101044.22;5046686;28;20201;-73
2023/03/04 07:01:34;;;;;;;51.40;31.17;;;;;;;-0.67;100.00;101050.59;5049541;28;20250;-73
2023/03/04 07:03:59;;;;;;;52.17;33.20;;;;;;;-0.57;100.00;101049.38;5069497;28;20194;-73
2023/03/04 07:06:27;;;;;;;54.43;33.47;;;;;;;-0.50;100.00;101055.63;5068436;28;20193;-74
2023/03/04 07:08:53;;;;;;;49.00;31.73;;;;;;;-0.45;100.00;101051.66;5050086;28;20228;-74
2023/03/04 07:11:20;;;;;;;52.73;33.40;;;;;;;-0.36;100.00;101058.84;5054518;28;20193;-73
2023/03/04 07:13:46;;;;;;;46.93;32.17;;;;;;;-0.29;100.00;101052.38;5052898;28;20567;-73
2023/03/04 07:16:16;;;;;;;47.83;31.47;;;;;;;-0.23;100.00;101063.72;5052195;28;20208;-73
2023/03/04 07:18:41;;;;;;;182.10;53.13;;;;;;;-0.13;100.00;101066.69;5053654;28;20198;-74
2023/03/04 07:21:07;;;;;;;135.47;49.03;;;;;;;-0.03;100.00;101071.44;5048731;28;20190;-73
2023/03/04 07:23:33;;;;;;;56.07;35.30;;;;;;;0.03;100.00;101075.94;5050156;28;20994;-74
2023/03/04 07:25:58;;;;;;;47.80;32.70;;;;;;;0.07;100.00;101081.22;5045809;28;20202;-74
2023/03/04 07:28:24;;;;;;;46.43;31.40;;;;;;;0.14;100.00;101082.38;5045570;28;20575;-74
2023/03/04 07:30:49;;;;;;;42.93;29.63;;;;;;;0.23;100.00;101077.69;5050137;28;20232;-74
2023/03/04 07:33:14;;;;;;;41.10;29.07;;;;;;;0.34;100.00;101080.75;5051235;28;20190;-74
2023/03/04 07:35:40;;;;;;;39.23;27.93;;;;;;;0.43;100.00;101081.19;5045735;28;20255;-74
2023/03/04 07:38:06;;;;;;;41.17;29.67;;;;;;;0.49;100.00;101080.59;5039363;28;20210;-74
2023/03/04 07:40:31;;;;;;;37.97;26.93;;;;;;;0.60;100.00;101084.47;5039045;28;20197;-74
2023/03/04 07:42:56;;;;;;;36.47;25.93;;;;;;;0.71;100.00;101092.59;5045405;28;20177;-75
2023/03/04 07:45:23;;;;;;;34.30;25.37;;;;;;;0.82;100.00;101090.53;5040971;28;20194;-74
2023/03/04 07:47:49;;;;;;;35.97;25.50;;;;;;;0.96;100.00;101092.81;5041195;28;20872;-76
2023/03/04 07:50:15;;;;;;;37.07;25.90;;;;;;;1.04;100.00;101089.78;5045359;28;20187;-76
2023/03/04 07:52:42;;;;;;;31.50;24.03;;;;;;;1.13;100.00;101101.16;5044551;28;20189;-76
2023/03/04 07:55:09;;;;;;;35.87;26.53;;;;;;;1.21;100.00;101099.81;5046199;28;20181;-77
2023/03/04 07:57:34;;;;;;;31.13;23.30;;;;;;;1.32;100.00;101095.16;5038479;28;20283;-77
2023/03/04 08:00:00;;;;;;;31.27;23.43;;;;;;;1.45;100.00;101099.09;5040495;28;20187;-77
2023/03/04 08:02:25;;;;;;;33.93;24.50;;;;;;;1.59;100.00;101102.22;5045876;28;20191;-77
2023/03/04 08:04:50;;;;;;;31.03;24.37;;;;;;;1.66;100.00;101107.63;5050314;28;20200;-75
2023/03/04 08:07:16;;;;;;;27.87;22.97;;;;;;;1.73;100.00;101110.44;5055745;28;20212;-75
2023/03/04 08:09:41;;;;;;;29.43;22.80;;;;;;;1.78;100.00;101112.34;5042504;28;20218;-76
2023/03/04 08:12:06;;;;;;;28.93;22.83;;;;;;;1.81;100.00;101111.63;5066021;28;20190;-74
2023/03/04 08:14:32;;;;;;;28.10;22.80;;;;;;;1.87;100.00;101116.94;5060231;28;20228;-75
2023/03/04 08:16:58;;;;;;;29.97;23.57;;;;;;;1.92;100.00;101118.03;5051298;28;20288;-74
2023/03/04 08:19:24;;;;;;;32.37;23.00;;;;;;;2.03;100.00;101115.91;5043965;28;20206;-74
2023/03/04 08:21:49;;;;;;;30.73;23.93;;;;;;;2.13;100.00;101110.31;5043049;28;20270;-75
2023/03/04 08:24:14;;;;;;;30.07;22.57;;;;;;;2.23;100.00;101110.66;5041116;28;20759;-74
2023/03/04 08:26:42;;;;;;;28.07;24.63;;;;;;;2.44;100.00;101111.50;5041571;28;20522;-76
2023/03/04 08:29:12;;;;;;;27.47;22.73;;;;;;;2.52;100.00;101114.34;5039623;28;20214;-75
2023/03/04 08:31:38;;;;;;;30.10;22.57;;;;;;;2.61;100.00;101116.38;5028193;28;20190;-76
2023/03/04 08:34:06;;;;;;;29.80;22.77;;;;;;;2.71;100.00;101115.88;5030944;28;20186;-74
2023/03/04 08:36:32;;;;;;;30.23;22.47;;;;;;;2.83;100.00;101112.03;5033185;28;20186;-75
2023/03/04 08:38:57;;;;;;;32.13;23.07;;;;;;;2.94;100.00;101108.19;5033329;28;20217;-74
2023/03/04 08:41:25;;;;;;;61.10;24.10;;;;;;;3.03;100.00;101111.06;5032231;28;20191;-73
2023/03/04 08:43:50;;;;;;;35.47;23.40;;;;;;;3.17;100.00;101106.44;5026393;28;20202;-74
2023/03/04 08:46:15;;;;;;;27.00;21.07;;;;;;;3.38;100.00;101114.78;5031823;28;20187;-75
2023/03/04 08:48:40;;;;;;;26.83;22.27;;;;;;;3.60;100.00;101109.53;5036417;28;20260;-76
2023/03/04 08:51:11;;;;;;;24.83;21.43;;;;;;;3.85;100.00;101117.16;5035819;28;20183;-74
2023/03/04 08:53:37;;;;;;;26.10;21.97;;;;;;;4.04;100.00;101111.81;5038703;28;20188;-74
2023/03/04 08:56:04;;;;;;;27.20;22.30;;;;;;;4.21;99.80;101112.31;5034671;28;20477;-75
2023/03/04 08:58:29;;;;;;;25.33;21.50;;;;;;;4.41;99.19;101107.78;5035060;28;20259;-74
2023/03/04 09:00:54;;;;;;;29.40;24.80;;;;;;;4.57;98.00;101106.53;5040888;28;20198;-74
2023/03/04 09:03:20;;;;;;;27.50;24.60;;;;;;;4.78;97.13;101117.34;5047748;28;20574;-75
2023/03/04 09:05:47;;;;;;;27.90;24.90;;;;;;;4.84;96.04;101107.28;5047050;28;20206;-74
2023/03/04 09:08:13;;;;;;;27.97;25.03;;;;;;;4.98;95.83;101112.78;5043254;28;20226;-74
2023/03/04 09:10:38;;;;;;;27.10;24.30;;;;;;;5.08;95.52;101101.94;5046178;28;20192;-75
2023/03/04 09:13:05;;;;;;;31.57;26.87;;;;;;;5.14;94.85;101109.81;5042003;28;20210;-74
2023/03/04 09:15:30;;;;;;;28.80;25.70;;;;;;;5.25;94.45;101102.38;5044566;28;20222;-75
2023/03/04 09:17:56;;;;;;;29.57;26.47;;;;;;;5.31;93.78;101106.81;5043634;28;20247;-73
2023/03/04 09:20:22;;;;;;;29.17;26.07;;;;;;;5.42;93.28;101113.09;5047722;28;20224;-75
2023/03/04 09:22:47;;;;;;;34.50;29.53;;;;;;;5.48;91.91;101104.66;5042679;28;20230;-74
2023/03/04 09:25:14;;;;;;;37.07;28.97;;;;;;;5.56;91.32;101103.16;5041215;28;20979;-74
2023/03/04 09:27:40;;;;;;;30.43;27.33;;;;;;;5.72;89.60;101106.13;5039567;28;20593;-75
2023/03/04 09:30:06;;;;;;;31.80;28.57;;;;;;;5.82;89.02;101104.63;5035860;28;20214;-75
2023/03/04 09:32:31;;;;;;;31.83;28.53;;;;;;;5.94;88.39;101108.34;5039764;28;20184;-75
2023/03/04 09:34:57;;;;;;;34.43;31.03;;;;;;;6.13;86.31;101108.81;5045625;28;20292;-75
2023/03/04 09:37:22;;;;;;;32.23;29.03;;;;;;;6.29;85.75;101104.00;5041423;28;20203;-73
2023/03/04 09:39:49;;;;;;;32.63;29.23;;;;;;;6.37;84.51;101108.47;5042463;28;20238;-74
2023/03/04 09:42:33;;;;;;;31.07;28.00;;;;;;;6.54;84.47;101107.97;5038786;28;20198;-74
2023/03/04 09:45:01;;;;;;;33.07;29.77;;;;;;;6.74;83.25;101107.50;5037777;28;20224;-74
2023/03/04 09:47:28;;;;;;;32.37;29.17;;;;;;;6.76;82.19;101109.28;5031858;28;20709;-74
2023/03/04 09:49:58;;;;;;;32.47;29.10;;;;;;;6.72;81.91;101107.47;5039750;28;20292;-74
2023/03/04 09:52:42;;;;;;;47.00;31.77;;;;;;;6.68;79.66;101103.97;5039004;28;20230;-74
2023/03/04 09:55:26;;;;;;;36.27;31.03;;;;;;;6.47;79.28;101116.38;5037683;28;20201;-73
2023/03/04 09:58:25;;;;;;;34.97;31.27;;;;;;;6.35;79.31;101115.28;5035176;28;20222;-74
2023/03/04 10:01:15;;;;;;;33.17;29.87;;;;;;;6.35;79.53;101112.72;5037098;28;20256;-74
2023/03/04 10:03:49;;;;;;;31.73;28.57;;;;;;;6.45;79.67;101118.03;5033472;28;20276;-74
2023/03/04 10:06:17;;;;;;;31.80;28.70;;;;;;;6.60;79.44;101110.66;5035167;28;20663;-74
2023/03/04 10:08:46;;;;;;;33.50;29.63;;;;;;;6.68;78.48;101108.25;5032863;28;20270;-74
2023/03/04 10:11:20;;;;;;;38.10;33.70;;;;;;;6.12;76.10;101117.34;5038262;28;21537;-73
2023/03/04 10:14:03;;;;;;;35.80;31.93;;;;;;;6.16;77.51;101120.84;5035545;28;20197;-74
2023/03/04 10:16:36;;;;;;;65.37;36.43;;;;;;;6.24;77.00;101114.19;5033720;28;21480;-73
2023/03/04 10:19:13;;;;;;;40.23;33.10;;;;;;;6.00;76.05;101112.78;5044837;28;20237;-74
2023/03/04 10:21:44;;;;;;;35.00;31.20;;;;;;;6.05;76.41;101112.91;5036021;28;20290;-74
2023/03/04 10:24:21;;;;;;;34.77;31.00;;;;;;;5.97;76.60;101106.69;5033690;28;20987;-72
2023/03/04 10:27:03;;;;;;;39.23;32.40;;;;;;;5.85;76.90;101110.72;5033646;28;20191;-74
2023/03/04 10:29:31;;;;;;;38.80;33.77;;;;;;;5.74;77.28;101102.75;5054565;28;20263;-73
2023/03/04 10:31:56;;;;;;;38.67;32.73;;;;;;;5.78;77.21;101109.69;5034002;28;20189;-73
2023/03/04 10:34:22;;;;;;;39.13;32.43;;;;;;;5.75;77.25;101107.03;5036184;28;20204;-73
2023/03/04 10:37:00;;;;;;;43.00;33.23;;;;;;;5.70;76.27;101106.06;5053477;28;20250;-74
2023/03/04 10:39:30;;;;;;;111.33;43.37;;;;;;;5.58;77.67;101105.75;5034707;28;20231;-74
2023/03/04 10:42:14;;;;;;;59.37;36.90;;;;;;;5.63;77.43;101096.47;5034560;28;20307;-73
2023/03/04 10:44:57;;;;;;;59.23;36.50;;;;;;;5.78;77.70;101104.56;5037073;28;20216;-74
2023/03/04 10:47:31;;;;;;;43.73;35.67;;;;;;;5.75;77.41;101101.03;5037855;28;20197;-74
2023/03/04 10:49:59;;;;;;;43.20;34.83;;;;;;;5.83;78.01;101101.22;5037104;28;20298;-74
2023/03/04 10:52:39;;;;;;;37.93;33.43;;;;;;;5.84;77.41;101091.00;5035413;28;20690;-75
2023/03/04 10:55:14;;;;;;;36.90;32.90;;;;;;;5.96;77.53;101095.56;5038265;28;20250;-74
2023/03/04 10:57:42;;;;;;;39.70;33.63;;;;;;;6.14;76.74;101087.41;5033517;28;20217;-73
2023/03/04 11:00:17;;;;;;;38.57;32.63;;;;;;;6.10;77.02;101081.34;5033452;28;20190;-74
2023/03/04 11:02:46;;;;;;;36.87;31.70;;;;;;;5.98;76.82;101086.16;5037567;28;20203;-74
2023/03/04 11:05:24;;;;;;;35.10;30.87;;;;;;;6.00;77.06;101083.66;5035504;28;20194;-73